Time;durP1;ratioP1;P1;durP2;ratioP2;P2;SDS_P1;SDS_P2;PMS_P1;PMS_P2;Temp;Humidity;BMP_temperature;BMP_pressure;BME280_temperature;BME280_humidity;BME280_pressure;Samples;Min_cycle;Max_cycle;Signal;HPM_P1;HPM_P2
2021/09/15 00:00:52;;;;;;;7.53;6.60;;;21.90;99.90;;;;;;5045690;28;20532;-83
2021/09/15 00:03:19;;;;;;;8.40;7.17;;;21.80;99.90;;;;;;5045068;28;20481;-83
2021/09/15 00:05:46;;;;;;;8.63;6.37;;;21.90;99.90;;;;;;5027764;28;20517;-83
2021/09/15 00:08:13;;;;;;;8.50;6.33;;;21.80;99.90;;;;;;5024031;28;20493;-83
2021/09/15 00:10:40;;;;;;;9.80;7.10;;;21.70;99.90;;;;;;5031603;28;20874;-83
2021/09/15 00:13:08;;;;;;;9.53;7.30;;;21.70;99.90;;;;;;5043922;28;20476;-83
2021/09/15 00:15:35;;;;;;;8.30;6.67;;;21.70;99.90;;;;;;5033822;28;20445;-83
2021/09/15 00:18:02;;;;;;;9.60;6.80;;;21.80;99.90;;;;;;5045744;28;20489;-84
2021/09/15 00:20:28;;;;;;;9.30;6.63;;;21.80;99.90;;;;;;5046708;28;20526;-83
2021/09/15 00:22:55;;;;;;;8.50;6.97;;;21.90;99.90;;;;;;5049630;28;20485;-83
2021/09/15 00:25:22;;;;;;;11.03;6.90;;;21.90;99.90;;;;;;5048251;28;20481;-84
2021/09/15 00:27:49;;;;;;;8.30;6.37;;;21.90;99.90;;;;;;5047981;28;20491;-83
2021/09/15 00:30:17;;;;;;;9.30;6.07;;;21.90;99.90;;;;;;5048972;28;20445;-83
2021/09/15 00:32:44;;;;;;;8.13;6.57;;;21.90;99.90;;;;;;5048937;28;20441;-83
2021/09/15 00:35:11;;;;;;;10.10;7.03;;;21.80;99.90;;;;;;5039049;28;20450;-83
2021/09/15 00:37:38;;;;;;;9.07;6.73;;;21.80;99.90;;;;;;5031499;28;20470;-83
2021/09/15 00:40:06;;;;;;;9.63;6.63;;;21.80;99.90;;;;;;5053286;28;20512;-83
2021/09/15 00:42:33;;;;;;;10.20;7.67;;;21.80;99.90;;;;;;5055546;28;20485;-83
2021/09/15 00:45:00;;;;;;;8.70;6.70;;;21.80;99.90;;;;;;5041156;28;20438;-83
2021/09/15 00:47:28;;;;;;;9.20;6.63;;;22.00;99.90;;;;;;5030261;28;20474;-83
2021/09/15 00:49:55;;;;;;;9.43;6.70;;;22.00;99.90;;;;;;5030082;28;20484;-83
2021/09/15 00:52:23;;;;;;;9.70;6.53;;;22.10;99.90;;;;;;5037681;28;20456;-83
2021/09/15 00:54:50;;;;;;;9.93;7.10;;;22.20;99.90;;;;;;5041070;28;20791;-84
2021/09/15 00:57:16;;;;;;;13.60;6.93;;;22.00;99.90;;;;;;5030035;28;20538;-84
2021/09/15 00:59:43;;;;;;;7.30;6.50;;;21.90;99.90;;;;;;5048743;28;20525;-84
2021/09/15 01:02:10;;;;;;;8.87;6.60;;;22.00;99.90;;;;;;5049057;28;20445;-84
2021/09/15 01:04:38;;;;;;;9.97;6.53;;;22.00;99.90;;;;;;5046945;28;20482;-83
2021/09/15 01:07:05;;;;;;;7.47;6.67;;;22.00;99.90;;;;;;5048714;28;20476;-84
2021/09/15 01:09:35;;;;;;;11.17;6.70;;;21.90;99.90;;;;;;5050923;28;20450;-83
2021/09/15 01:12:03;;;;;;;10.10;6.60;;;22.00;99.90;;;;;;5048896;28;20450;-84
2021/09/15 01:14:30;;;;;;;7.70;6.50;;;22.00;99.90;;;;;;5044157;28;20510;-84
2021/09/15 01:16:58;;;;;;;11.07;7.03;;;22.00;99.90;;;;;;5028389;28;20462;-83
2021/09/15 01:19:26;;;;;;;10.93;9.03;;;22.00;99.90;;;;;;5029571;28;20488;-84
2021/09/15 01:21:55;;;;;;;9.03;6.97;;;22.00;99.90;;;;;;5048932;28;20449;-84
2021/09/15 01:24:23;;;;;;;7.33;6.47;;;22.00;99.90;;;;;;5045121;28;20478;-83
2021/09/15 01:26:50;;;;;;;8.20;7.20;;;22.00;99.90;;;;;;5028102;28;20542;-83
2021/09/15 01:29:21;;;;;;;9.43;6.80;;;22.00;99.90;;;;;;5029255;28;20477;-85
2021/09/15 01:31:56;;;;;;;8.87;7.40;;;21.90;99.90;;;;;;5028627;28;20439;-83
2021/09/15 01:34:23;;;;;;;8.33;7.07;;;21.90;99.90;;;;;;5035347;28;20460;-83
2021/09/15 01:36:50;;;;;;;8.80;7.33;;;21.90;99.90;;;;;;5025957;28;20466;-83
2021/09/15 01:39:18;;;;;;;8.47;6.97;;;21.80;99.90;;;;;;5031042;28;20453;-83
2021/09/15 01:41:45;;;;;;;9.70;6.90;;;21.90;99.90;;;;;;5045428;28;20809;-83
2021/09/15 01:44:12;;;;;;;10.30;7.90;;;21.80;99.90;;;;;;5044393;28;20511;-83
2021/09/15 01:46:38;;;;;;;9.73;8.17;;;21.80;99.90;;;;;;5040512;28;20993;-83
2021/09/15 01:49:05;;;;;;;10.07;7.10;;;21.90;99.90;;;;;;5045278;28;20449;-83
2021/09/15 01:51:32;;;;;;;9.57;7.33;;;21.90;99.90;;;;;;5046948;28;20540;-83
2021/09/15 01:53:59;;;;;;;11.83;8.70;;;21.90;99.90;;;;;;5046854;28;20539;-83
2021/09/15 01:56:27;;;;;;;11.97;7.70;;;21.90;99.90;;;;;;5037095;28;20556;-83
2021/09/15 01:58:54;;;;;;;11.07;7.60;;;21.90;99.90;;;;;;5048014;28;20505;-83
2021/09/15 02:01:20;;;;;;;12.83;7.90;;;21.90;99.90;;;;;;5047331;28;20778;-83
2021/09/15 02:03:47;;;;;;;14.20;8.07;;;21.90;99.90;;;;;;5047218;28;20912;-83
2021/09/15 02:06:14;;;;;;;9.47;7.97;;;21.80;99.90;;;;;;5029027;28;20477;-84
2021/09/15 02:08:41;;;;;;;11.63;7.83;;;21.80;99.90;;;;;;5027251;28;20565;-84
2021/09/15 02:11:08;;;;;;;10.87;7.63;;;21.80;99.90;;;;;;5027272;28;20465;-84
2021/09/15 02:13:36;;;;;;;10.60;7.70;;;21.90;99.90;;;;;;5039182;28;20518;-84
2021/09/15 02:16:03;;;;;;;9.33;7.30;;;21.90;99.90;;;;;;5045095;28;20934;-84
2021/09/15 02:18:30;;;;;;;9.93;7.87;;;21.90;99.90;;;;;;5047491;28;20445;-84
2021/09/15 02:20:56;;;;;;;9.73;8.07;;;21.90;99.90;;;;;;5047366;28;20454;-84
2021/09/15 02:23:23;;;;;;;10.83;8.33;;;22.00;99.90;;;;;;5046273;28;20528;-84
2021/09/15 02:25:50;;;;;;;12.50;7.50;;;22.00;99.90;;;;;;5033869;28;20454;-84
2021/09/15 02:28:17;;;;;;;10.37;7.93;;;21.80;99.90;;;;;;5026757;28;20485;-84
2021/09/15 02:30:45;;;;;;;10.47;7.73;;;21.80;99.90;;;;;;5048315;28;20477;-84
2021/09/15 02:33:12;;;;;;;8.40;7.50;;;21.80;99.90;;;;;;5047712;28;20877;-84
2021/09/15 02:35:39;;;;;;;14.17;7.60;;;21.90;99.90;;;;;;5036775;28;20458;-84
2021/09/15 02:38:05;;;;;;;10.80;7.67;;;21.80;99.90;;;;;;5028653;28;20469;-84
2021/09/15 02:40:32;;;;;;;8.20;7.00;;;21.90;99.90;;;;;;5036186;28;20481;-83
2021/09/15 02:42:59;;;;;;;10.03;7.30;;;22.00;99.90;;;;;;5048665;28;20510;-84
2021/09/15 02:45:26;;;;;;;9.43;7.37;;;22.00;99.90;;;;;;5037013;28;20485;-84
2021/09/15 02:47:54;;;;;;;8.93;6.97;;;22.00;99.90;;;;;;5027479;28;20555;-84
2021/09/15 02:50:21;;;;;;;8.83;7.70;;;22.00;99.90;;;;;;5027509;28;20893;-84
2021/09/15 02:52:48;;;;;;;10.33;7.10;;;22.00;99.90;;;;;;5043473;28;20854;-84
2021/09/15 02:55:15;;;;;;;9.10;7.30;;;22.00;99.90;;;;;;5039176;28;20439;-84
2021/09/15 02:57:42;;;;;;;9.27;8.03;;;22.00;99.90;;;;;;5043230;28;20508;-83
2021/09/15 03:00:10;;;;;;;9.40;6.80;;;22.10;99.90;;;;;;5046444;28;20473;-83
2021/09/15 03:02:37;;;;;;;8.87;7.87;;;22.00;99.90;;;;;;5045982;28;20513;-83
2021/09/15 03:05:06;;;;;;;9.73;7.90;;;22.00;99.90;;;;;;5040071;28;20510;-83
2021/09/15 03:07:33;;;;;;;9.60;7.30;;;21.80;99.90;;;;;;5038530;28;21070;-83
2021/09/15 03:10:00;;;;;;;9.67;7.40;;;21.80;99.90;;;;;;5045816;28;20571;-84
2021/09/15 03:12:26;;;;;;;8.67;7.77;;;21.80;99.90;;;;;;5043428;28;20465;-84
2021/09/15 03:14:53;;;;;;;8.57;7.63;;;21.80;99.90;;;;;;5025866;28;20837;-84
2021/09/15 03:17:20;;;;;;;8.27;7.40;;;21.80;99.90;;;;;;5025574;28;20474;-85
2021/09/15 03:19:47;;;;;;;10.40;7.27;;;21.90;99.90;;;;;;5026085;28;20528;-83
2021/09/15 03:22:15;;;;;;;8.80;7.67;;;22.00;99.90;;;;;;5026536;28;20518;-83
2021/09/15 03:24:42;;;;;;;9.40;7.40;;;21.90;99.90;;;;;;5031565;28;20477;-84
2021/09/15 03:27:09;;;;;;;9.77;7.50;;;22.00;99.90;;;;;;5045938;28;20636;-83
2021/09/15 03:29:36;;;;;;;11.03;7.60;;;22.10;99.90;;;;;;5046408;28;20460;-84
2021/09/15 03:32:03;;;;;;;8.83;6.73;;;22.10;99.90;;;;;;5045772;28;20449;-84
2021/09/15 03:34:30;;;;;;;8.20;7.33;;;22.10;99.90;;;;;;5034909;28;20448;-83
2021/09/15 03:36:57;;;;;;;13.40;7.80;;;22.10;99.90;;;;;;5044666;28;20556;-84
2021/09/15 03:39:25;;;;;;;9.50;7.00;;;22.00;99.90;;;;;;5044218;28;20531;-83
2021/09/15 03:41:52;;;;;;;10.40;7.70;;;21.90;99.90;;;;;;5047076;28;20449;-83
2021/09/15 03:44:19;;;;;;;10.13;7.67;;;21.90;99.90;;;;;;5045291;28;20620;-83
2021/09/15 03:46:45;;;;;;;9.77;7.97;;;21.80;99.90;;;;;;5036179;28;20549;-84
2021/09/15 03:49:12;;;;;;;8.13;7.23;;;21.80;99.90;;;;;;5035311;28;20512;-85
2021/09/15 03:51:39;;;;;;;12.43;7.60;;;21.70;99.90;;;;;;5047582;28;20544;-84
2021/09/15 03:54:06;;;;;;;11.20;7.90;;;21.80;99.90;;;;;;5046804;28;20493;-83
2021/09/15 03:56:34;;;;;;;9.97;7.97;;;21.80;99.90;;;;;;5049387;28;20528;-84
2021/09/15 03:59:01;;;;;;;9.80;7.90;;;21.70;99.90;;;;;;5049413;28;20452;-84
2021/09/15 04:01:28;;;;;;;10.37;7.53;;;21.70;99.90;;;;;;5039560;28;20592;-83
2021/09/15 04:03:55;;;;;;;9.10;7.80;;;21.60;99.90;;;;;;5050528;28;20914;-83
2021/09/15 04:06:21;;;;;;;11.10;7.47;;;21.50;99.90;;;;;;5049798;28;20512;-83
2021/09/15 04:08:48;;;;;;;10.67;7.63;;;21.40;99.90;;;;;;5050218;28;20805;-84
2021/09/15 04:11:15;;;;;;;10.13;8.40;;;21.40;99.90;;;;;;5049139;28;20476;-84
2021/09/15 04:13:44;;;;;;;11.97;7.87;;;21.40;99.90;;;;;;5053865;28;20451;-84
2021/09/15 04:16:10;;;;;;;10.07;7.80;;;21.40;99.90;;;;;;5038714;28;20918;-83
2021/09/15 04:18:37;;;;;;;10.50;7.83;;;21.50;99.90;;;;;;5040015;28;20643;-83
2021/09/15 04:21:06;;;;;;;13.87;9.03;;;21.50;99.90;;;;;;5043057;28;20456;-84
2021/09/15 04:23:39;;;;;;;9.10;8.13;;;21.40;99.90;;;;;;5045451;28;20452;-84
2021/09/15 04:31:36;;;;;;;9.30;7.87;;;21.30;99.90;;;;;;5048429;28;20461;-84
2021/09/15 04:34:24;;;;;;;9.80;8.53;;;21.30;99.90;;;;;;5054332;28;20486;-84
2021/09/15 04:36:51;;;;;;;9.43;7.83;;;21.30;99.90;;;;;;5056183;28;20483;-84
2021/09/15 04:39:21;;;;;;;11.33;7.17;;;21.40;99.90;;;;;;5131810;23;20489;-83
2021/09/15 04:41:47;;;;;;;13.73;8.60;;;21.30;99.90;;;;;;5056864;28;20536;-84
2021/09/15 04:44:16;;;;;;;10.70;8.67;;;21.30;99.90;;;;;;5050807;28;20476;-85
2021/09/15 04:46:42;;;;;;;9.03;7.60;;;21.30;99.90;;;;;;5053127;28;20521;-83
2021/09/15 04:49:10;;;;;;;9.80;7.37;;;21.40;99.90;;;;;;5058411;28;20453;-83
2021/09/15 04:51:37;;;;;;;13.03;8.60;;;21.40;99.90;;;;;;5058514;28;20511;-83
2021/09/15 04:54:04;;;;;;;10.53;8.07;;;21.40;99.90;;;;;;5060039;28;20512;-83
2021/09/15 04:56:31;;;;;;;11.60;9.00;;;21.40;99.90;;;;;;5077949;28;20484;-82
2021/09/15 04:58:58;;;;;;;9.90;8.67;;;21.30;99.90;;;;;;5084844;22;20802;-82
2021/09/15 05:01:26;;;;;;;10.50;8.20;;;21.30;99.90;;;;;;5078364;28;20468;-83
2021/09/15 05:03:53;;;;;;;9.77;8.00;;;21.30;99.90;;;;;;5067376;28;20472;-84
2021/09/15 05:06:20;;;;;;;10.37;7.63;;;21.30;99.90;;;;;;5060390;28;20448;-83
2021/09/15 05:08:47;;;;;;;10.67;9.03;;;21.30;99.90;;;;;;5072556;28;20506;-82
2021/09/15 05:11:14;;;;;;;9.30;7.77;;;21.20;99.90;;;;;;5054244;28;20525;-84
2021/09/15 05:13:41;;;;;;;13.13;9.60;;;21.20;99.90;;;;;;5039965;28;20473;-83
2021/09/15 05:16:08;;;;;;;9.90;8.90;;;21.20;99.90;;;;;;5039548;28;20958;-83
2021/09/15 05:18:36;;;;;;;10.57;8.77;;;21.10;99.90;;;;;;5025501;28;20453;-83
2021/09/15 05:21:03;;;;;;;12.17;8.20;;;21.10;99.90;;;;;;5038286;28;20543;-82
2021/09/15 05:23:29;;;;;;;11.20;8.27;;;21.10;99.90;;;;;;5046076;28;20462;-84
2021/09/15 05:25:56;;;;;;;11.10;9.50;;;21.00;99.90;;;;;;5044127;28;20549;-83
2021/09/15 05:28:23;;;;;;;12.70;9.07;;;21.00;99.90;;;;;;5055864;28;20493;-83
2021/09/15 05:30:50;;;;;;;9.93;8.27;;;20.90;99.90;;;;;;5068164;28;20465;-83
2021/09/15 05:33:17;;;;;;;12.40;8.97;;;21.00;99.90;;;;;;5040252;28;20549;-83
2021/09/15 05:35:47;;;;;;;11.87;9.20;;;20.90;99.90;;;;;;5019950;28;20450;-83
2021/09/15 05:38:18;;;;;;;11.30;9.60;;;20.90;99.90;;;;;;5020318;28;20482;-83
2021/09/15 05:40:45;;;;;;;10.57;8.60;;;20.90;99.90;;;;;;5020124;28;20466;-83
2021/09/15 05:43:11;;;;;;;10.70;8.60;;;20.90;99.90;;;;;;5047597;28;20449;-83
2021/09/15 05:45:38;;;;;;;9.60;8.43;;;21.00;99.90;;;;;;5041350;28;20496;-82
2021/09/15 05:48:05;;;;;;;13.40;9.03;;;21.00;99.90;;;;;;5039521;28;20493;-81
2021/09/15 05:50:32;;;;;;;15.47;8.47;;;21.00;99.90;;;;;;5031551;28;20481;-82
2021/09/15 05:53:01;;;;;;;10.90;8.47;;;21.00;99.90;;;;;;5055728;28;20457;-84
2021/09/15 05:55:27;;;;;;;9.60;8.10;;;21.00;99.90;;;;;;5061795;28;20814;-79
2021/09/15 05:57:54;;;;;;;12.50;9.23;;;21.10;99.90;;;;;;5041953;28;20452;-79
2021/09/15 06:00:21;;;;;;;10.27;9.27;;;21.10;99.90;;;;;;5040962;28;20473;-78
2021/09/15 06:02:48;;;;;;;12.00;8.40;;;21.10;99.90;;;;;;5063473;28;20516;-78
2021/09/15 06:05:15;;;;;;;10.73;7.83;;;21.10;99.90;;;;;;5031663;28;20493;-80
2021/09/15 06:07:41;;;;;;;11.23;8.63;;;21.00;99.90;;;;;;5030633;28;20449;-79
2021/09/15 06:10:10;;;;;;;12.33;8.53;;;21.10;99.90;;;;;;5037350;28;20556;-79
2021/09/15 06:12:37;;;;;;;13.37;8.83;;;21.10;99.90;;;;;;5053458;28;20457;-78
2021/09/15 06:15:05;;;;;;;11.07;8.20;;;21.10;99.90;;;;;;5056722;28;20476;-78
2021/09/15 06:17:31;;;;;;;10.97;7.90;;;21.10;99.90;;;;;;5056497;28;20448;-78
2021/09/15 06:19:58;;;;;;;10.33;7.43;;;21.10;99.90;;;;;;5056481;28;20476;-79
2021/09/15 06:22:25;;;;;;;12.80;7.20;;;21.10;99.90;;;;;;5048231;28;20452;-78
2021/09/15 06:24:54;;;;;;;11.30;7.73;;;21.10;99.90;;;;;;5045275;28;20520;-78
2021/09/15 06:27:23;;;;;;;11.10;7.90;;;21.10;99.90;;;;;;5037089;28;20512;-79
2021/09/15 06:29:50;;;;;;;11.17;8.27;;;21.10;99.90;;;;;;5036579;28;20597;-79
2021/09/15 06:32:19;;;;;;;9.63;7.60;;;21.10;99.90;;;;;;5050045;28;20455;-78
2021/09/15 06:34:46;;;;;;;12.70;8.10;;;21.10;99.90;;;;;;5068937;28;20448;-78
2021/09/15 06:37:14;;;;;;;10.70;7.83;;;21.10;99.90;;;;;;5055836;28;20460;-78
2021/09/15 06:39:41;;;;;;;8.97;7.80;;;21.10;99.90;;;;;;5016475;28;20474;-78
2021/09/15 06:42:08;;;;;;;8.60;7.43;;;21.10;99.90;;;;;;5038658;28;20535;-79
2021/09/15 06:44:37;;;;;;;9.93;7.93;;;21.10;99.90;;;;;;5054757;28;20479;-79
2021/09/15 06:47:04;;;;;;;10.00;8.37;;;21.10;99.90;;;;;;5038568;28;20450;-79
2021/09/15 06:49:30;;;;;;;10.87;8.53;;;21.10;99.90;;;;;;5041456;28;20472;-78
2021/09/15 06:51:57;;;;;;;11.93;8.83;;;21.00;99.90;;;;;;5048052;28;20530;-86
2021/09/15 06:54:24;;;;;;;17.80;8.87;;;21.10;99.90;;;;;;5032158;28;20451;-78
2021/09/15 06:56:51;;;;;;;9.90;8.83;;;21.20;99.90;;;;;;5030718;28;20889;-78
2021/09/15 06:59:18;;;;;;;13.07;8.33;;;21.20;99.90;;;;;;5051664;28;20572;-79
2021/09/15 07:01:46;;;;;;;15.47;7.90;;;21.20;99.90;;;;;;5048636;28;20441;-77
2021/09/15 07:04:13;;;;;;;11.70;8.33;;;21.20;99.90;;;;;;5049434;28;20475;-78
2021/09/15 07:06:40;;;;;;;12.33;8.00;;;21.30;99.90;;;;;;5035463;28;20477;-77
2021/09/15 07:09:08;;;;;;;11.47;8.70;;;21.30;99.90;;;;;;5035915;28;20475;-77
2021/09/15 07:11:35;;;;;;;9.57;8.30;;;21.30;99.90;;;;;;5036581;28;20446;-78
2021/09/15 07:14:04;;;;;;;10.00;7.77;;;21.20;99.90;;;;;;5036931;28;20464;-78
2021/09/15 07:16:31;;;;;;;11.53;8.53;;;21.30;99.90;;;;;;5051318;28;20532;-78
2021/09/15 07:18:59;;;;;;;10.73;8.53;;;21.40;99.90;;;;;;5050166;28;20501;-79
2021/09/15 07:21:26;;;;;;;13.63;7.13;;;21.30;99.90;;;;;;5037342;28;20453;-78
2021/09/15 07:23:53;;;;;;;12.07;8.00;;;21.20;99.90;;;;;;5036154;28;20511;-78
2021/09/15 07:26:20;;;;;;;10.33;8.17;;;21.20;99.90;;;;;;5035439;28;20568;-78
2021/09/15 07:28:47;;;;;;;8.97;7.50;;;21.30;99.90;;;;;;5035702;28;20449;-77
2021/09/15 07:31:14;;;;;;;12.53;8.50;;;21.30;99.90;;;;;;5035920;28;20461;-79
2021/09/15 07:33:41;;;;;;;10.50;8.03;;;21.30;99.90;;;;;;5036265;28;20468;-78
2021/09/15 07:36:09;;;;;;;13.23;9.00;;;21.30;99.90;;;;;;5041117;28;20465;-78
2021/09/15 07:38:36;;;;;;;11.40;10.27;;;21.30;99.90;;;;;;5051114;28;20506;-78
2021/09/15 07:41:04;;;;;;;12.67;8.50;;;21.20;99.90;;;;;;5022904;28;20498;-78
2021/09/15 07:43:31;;;;;;;13.27;9.13;;;21.20;99.90;;;;;;5035140;28;20854;-77
2021/09/15 07:46:00;;;;;;;12.90;10.90;;;21.20;99.90;;;;;;5034722;28;20487;-78
2021/09/15 07:48:27;;;;;;;14.50;8.50;;;21.30;99.90;;;;;;5036031;28;20540;-78
2021/09/15 07:50:55;;;;;;;7.70;5.63;;;21.30;99.90;;;;;;5034498;28;20457;-78
2021/09/15 07:53:23;;;;;;;8.13;6.33;;;21.30;99.90;;;;;;5035511;28;20469;-79
2021/09/15 07:55:50;;;;;;;8.30;5.27;;;21.30;99.90;;;;;;5035820;28;20445;-77
2021/09/15 07:58:20;;;;;;;11.33;5.80;;;21.40;99.90;;;;;;5035699;28;20793;-79
2021/09/15 08:00:47;;;;;;;13.63;6.70;;;21.50;99.90;;;;;;5034312;28;20491;-78
2021/09/15 08:03:16;;;;;;;7.37;5.50;;;21.50;99.90;;;;;;5035940;28;20486;-78
2021/09/15 08:05:43;;;;;;;8.33;4.77;;;21.60;99.90;;;;;;5035844;28;20481;-79
2021/09/15 08:08:12;;;;;;;10.10;4.87;;;21.60;99.90;;;;;;5044181;28;20433;-78
2021/09/15 08:10:40;;;;;;;8.70;5.37;;;21.60;99.90;;;;;;5039598;28;20849;-78
2021/09/15 08:13:07;;;;;;;11.10;4.93;;;21.70;99.90;;;;;;5038588;28;20520;-77
2021/09/15 08:15:34;;;;;;;8.43;6.20;;;21.70;99.90;;;;;;5046478;28;20450;-78
2021/09/15 08:18:01;;;;;;;10.07;5.90;;;21.70;99.90;;;;;;5045705;28;20459;-77
2021/09/15 08:20:28;;;;;;;8.43;5.07;;;21.70;99.90;;;;;;5043887;28;20485;-79
2021/09/15 08:22:56;;;;;;;12.53;5.10;;;21.70;99.90;;;;;;5042849;28;20457;-77
2021/09/15 08:25:28;;;;;;;7.53;4.57;;;21.70;99.90;;;;;;5036867;28;20481;-78
2021/09/15 08:27:56;;;;;;;7.40;4.90;;;21.70;99.90;;;;;;5036464;28;20492;-78
2021/09/15 08:30:23;;;;;;;8.37;5.17;;;21.70;99.90;;;;;;5036547;28;20466;-77
2021/09/15 08:32:50;;;;;;;9.73;5.50;;;21.70;99.90;;;;;;5035553;28;20458;-79
2021/09/15 08:35:17;;;;;;;10.63;4.97;;;21.80;99.90;;;;;;5035482;28;20464;-81
2021/09/15 08:37:44;;;;;;;8.77;5.67;;;21.90;99.90;;;;;;5035389;28;20545;-79
2021/09/15 08:40:11;;;;;;;10.33;5.03;;;21.80;99.90;;;;;;5035229;28;20481;-79
2021/09/15 08:42:38;;;;;;;8.80;5.60;;;21.80;99.90;;;;;;5035319;28;20823;-79
2021/09/15 08:45:08;;;;;;;7.77;4.73;;;21.80;99.90;;;;;;5038744;28;20457;-80
2021/09/15 08:47:38;;;;;;;9.43;6.63;;;21.80;99.90;;;;;;5039889;28;20556;-79
2021/09/15 08:50:07;;;;;;;8.50;5.83;;;21.80;99.90;;;;;;5038386;28;20480;-78
2021/09/15 08:52:34;;;;;;;6.70;5.60;;;21.70;99.90;;;;;;5043610;28;20508;-80
2021/09/15 08:55:02;;;;;;;12.10;6.60;;;21.60;99.90;;;;;;5040856;28;20463;-85
2021/09/15 08:57:29;;;;;;;10.47;6.00;;;21.60;99.90;;;;;;5039444;28;20970;-79
2021/09/15 08:59:56;;;;;;;10.13;6.83;;;21.60;99.90;;;;;;5039369;28;20477;-80
2021/09/15 09:02:25;;;;;;;11.07;6.33;;;21.60;99.90;;;;;;5041607;28;20493;-79
2021/09/15 09:04:54;;;;;;;7.90;5.80;;;21.60;99.90;;;;;;5040960;28;20881;-79
2021/09/15 09:07:21;;;;;;;8.80;6.67;;;21.60;99.90;;;;;;5040422;28;20481;-78
2021/09/15 09:09:50;;;;;;;10.07;6.70;;;21.70;99.90;;;;;;5042936;28;20556;-78
2021/09/15 09:12:18;;;;;;;9.57;6.53;;;21.70;99.90;;;;;;5051311;28;20458;-77
2021/09/15 09:14:46;;;;;;;8.57;6.00;;;21.60;99.90;;;;;;5052795;28;20460;-80
2021/09/15 09:17:29;;;;;;;8.03;6.10;;;21.60;99.90;;;;;;5049601;28;20444;-75
2021/09/15 09:20:18;;;;;;;10.60;6.60;;;21.60;99.90;;;;;;5057572;28;20480;-79
2021/09/15 09:23:09;;;;;;;9.37;6.63;;;21.50;99.90;;;;;;5064028;28;20532;-84
2021/09/15 09:25:40;;;;;;;7.23;5.40;;;21.50;99.90;;;;;;5024270;28;20978;-84
2021/09/15 09:28:22;;;;;;;7.03;5.20;;;21.40;99.90;;;;;;5021630;28;20816;-82
2021/09/15 09:30:50;;;;;;;10.73;5.37;;;21.30;99.90;;;;;;5059116;28;20476;-83
2021/09/15 09:33:19;;;;;;;8.20;4.93;;;21.30;99.90;;;;;;5043309;28;20477;-83
2021/09/15 09:35:47;;;;;;;8.80;5.00;;;21.30;99.90;;;;;;5039619;28;20815;-80
2021/09/15 09:38:23;;;;;;;9.23;5.10;;;21.20;99.90;;;;;;5045523;28;20461;-84
2021/09/15 09:40:58;;;;;;;5.40;4.13;;;21.20;99.90;;;;;;5055167;28;20546;-78
2021/09/15 09:43:25;;;;;;;8.33;5.30;;;21.30;99.90;;;;;;5049519;28;20497;-78
2021/09/15 09:45:52;;;;;;;7.80;5.40;;;21.30;99.90;;;;;;5046179;28;20545;-78
2021/09/15 09:48:41;;;;;;;8.27;5.37;;;21.30;99.90;;;;;;5043046;28;20453;-79
2021/09/15 09:51:27;;;;;;;11.27;5.33;;;21.30;99.90;;;;;;5020350;28;20766;-82
2021/09/15 09:54:12;;;;;;;8.10;5.60;;;21.30;99.90;;;;;;5024570;28;20452;-83
2021/09/15 09:56:41;;;;;;;10.47;6.13;;;21.40;99.90;;;;;;5050813;28;20971;-83
2021/09/15 09:59:09;;;;;;;10.57;4.83;;;21.40;99.90;;;;;;5029033;28;20480;-87
2021/09/15 10:01:41;;;;;;;8.80;5.53;;;21.50;99.90;;;;;;5059619;28;20440;-83
2021/09/15 10:04:09;;;;;;;7.80;5.20;;;21.60;99.90;;;;;;5059330;28;20519;-80
2021/09/15 10:06:38;;;;;;;11.63;6.87;;;21.80;99.90;;;;;;5065211;28;20606;-82
2021/09/15 10:09:05;;;;;;;8.87;5.40;;;21.90;99.90;;;;;;5057529;28;20499;-81
2021/09/15 10:11:32;;;;;;;6.90;5.50;;;21.90;99.90;;;;;;5041552;28;20509;-83
2021/09/15 10:14:01;;;;;;;9.00;5.00;;;22.00;99.90;;;;;;5039053;28;20452;-82
2021/09/15 10:16:29;;;;;;;8.43;5.43;;;22.20;99.90;;;;;;5042468;28;20446;-79
2021/09/15 10:19:00;;;;;;;7.90;5.60;;;22.20;99.90;;;;;;5052795;28;20457;-82
2021/09/15 10:21:31;;;;;;;9.77;5.90;;;22.30;99.90;;;;;;5058746;28;20455;-82
2021/09/15 10:23:59;;;;;;;8.53;6.17;;;22.30;99.90;;;;;;5061740;28;20443;-82
2021/09/15 10:26:37;;;;;;;8.87;5.20;;;22.40;99.90;;;;;;5065801;28;20855;-81
2021/09/15 10:29:20;;;;;;;11.50;5.53;;;22.40;99.90;;;;;;5049173;28;20893;-80
2021/09/15 10:31:59;;;;;;;8.23;5.70;;;22.50;99.90;;;;;;5041787;28;20442;-81
2021/09/15 10:34:45;;;;;;;11.80;6.23;;;22.50;99.90;;;;;;5046458;28;20524;-79
2021/09/15 10:37:51;;;;;;;7.50;4.90;;;22.50;99.90;;;;;;5045264;28;20520;-80
2021/09/15 10:40:38;;;;;;;9.07;5.03;;;22.50;99.90;;;;;;5038503;28;20567;-80
2021/09/15 10:43:26;;;;;;;7.97;5.13;;;22.50;99.90;;;;;;5038769;28;20481;-80
2021/09/15 10:46:32;;;;;;;9.07;5.60;;;22.60;99.90;;;;;;5044708;28;20468;-80
2021/09/15 10:49:41;;;;;;;7.60;5.90;;;22.60;99.90;;;;;;5007552;28;20471;-79
2021/09/15 10:52:27;;;;;;;9.30;5.73;;;22.50;99.90;;;;;;5037718;28;20910;-79
2021/09/15 10:54:56;;;;;;;8.60;5.40;;;22.50;99.90;;;;;;5040070;28;20924;-80
2021/09/15 10:57:33;;;;;;;7.57;5.53;;;22.40;99.90;;;;;;5046833;28;20449;-80
2021/09/15 11:00:03;;;;;;;8.03;6.03;;;22.40;99.90;;;;;;5037657;28;20491;-80
2021/09/15 11:02:31;;;;;;;7.43;5.30;;;22.30;99.90;;;;;;5056118;28;20520;-79
2021/09/15 11:04:59;;;;;;;8.43;5.70;;;22.50;99.90;;;;;;5025128;28;20450;-80
2021/09/15 11:08:00;;;;;;;8.67;5.10;;;22.60;99.90;;;;;;5053614;28;20484;-79
2021/09/15 11:10:40;;;;;;;7.43;5.67;;;22.70;99.90;;;;;;5069522;28;20487;-79
2021/09/15 11:13:10;;;;;;;6.10;4.93;;;22.90;99.90;;;;;;5040770;28;20461;-79
2021/09/15 11:15:38;;;;;;;13.57;5.67;;;23.00;99.90;;;;;;5038931;28;20767;-80
2021/09/15 11:18:06;;;;;;;8.27;5.97;;;23.10;99.90;;;;;;5037495;28;20441;-80
2021/09/15 11:20:36;;;;;;;11.37;5.90;;;23.10;99.90;;;;;;5036319;28;20533;-80
2021/09/15 11:23:05;;;;;;;11.17;5.67;;;23.10;99.90;;;;;;5049056;28;20429;-79
2021/09/15 11:25:32;;;;;;;9.17;6.00;;;23.00;99.90;;;;;;5050347;28;20562;-80
2021/09/15 11:28:08;;;;;;;10.10;5.60;;;23.20;99.90;;;;;;5023107;28;20494;-79
2021/09/15 11:30:36;;;;;;;11.30;6.23;;;23.20;99.90;;;;;;5051563;28;20563;-79
2021/09/15 11:33:04;;;;;;;10.40;5.67;;;23.20;99.90;;;;;;5055871;28;20509;-77
2021/09/15 11:35:34;;;;;;;7.47;5.53;;;23.20;99.90;;;;;;5053123;28;20460;-79
2021/09/15 11:38:01;;;;;;;8.27;5.33;;;23.30;99.90;;;;;;5093051;22;20491;-87
2021/09/15 11:40:29;;;;;;;7.43;5.20;;;23.30;99.90;;;;;;5078697;28;20443;-86
2021/09/15 11:42:57;;;;;;;7.33;5.83;;;23.30;99.90;;;;;;5085129;28;20523;-86
2021/09/15 11:45:26;;;;;;;7.50;5.27;;;23.20;99.90;;;;;;5087049;28;20496;-87
2021/09/15 11:47:55;;;;;;;10.93;6.30;;;23.10;99.90;;;;;;5083383;28;20538;-86
2021/09/15 11:50:24;;;;;;;7.73;6.00;;;23.10;99.90;;;;;;5079793;28;20451;-85
2021/09/15 11:52:55;;;;;;;7.43;6.27;;;23.00;99.90;;;;;;5070647;28;20527;-85
2021/09/15 11:55:23;;;;;;;7.43;5.97;;;22.90;99.90;;;;;;5069155;28;20445;-86
2021/09/15 11:57:51;;;;;;;7.80;5.63;;;22.80;99.90;;;;;;5077494;28;21014;-86
2021/09/15 12:00:18;;;;;;;7.63;5.70;;;22.80;99.90;;;;;;5076397;28;20440;-77
2021/09/15 12:02:49;;;;;;;8.80;6.37;;;22.90;99.90;;;;;;5071835;28;20452;-79
2021/09/15 12:05:16;;;;;;;11.13;6.80;;;22.80;99.90;;;;;;5052169;28;20768;-78
2021/09/15 12:07:44;;;;;;;8.17;5.90;;;22.90;99.90;;;;;;5053715;28;21008;-81
2021/09/15 12:10:12;;;;;;;7.67;6.43;;;22.90;99.90;;;;;;5053716;28;20456;-84
2021/09/15 12:12:40;;;;;;;8.20;5.27;;;22.90;99.90;;;;;;5055463;28;20871;-82
2021/09/15 12:15:08;;;;;;;7.33;5.83;;;23.00;99.90;;;;;;5071972;28;20455;-82
2021/09/15 12:17:35;;;;;;;8.23;5.73;;;23.10;99.90;;;;;;5067495;28;20460;-81
2021/09/15 12:20:04;;;;;;;8.60;5.73;;;23.10;99.90;;;;;;5059887;28;20562;-83
2021/09/15 12:22:32;;;;;;;10.10;6.87;;;22.90;99.90;;;;;;5068820;28;20445;-79
2021/09/15 12:25:05;;;;;;;8.23;5.77;;;22.90;99.90;;;;;;5071646;28;20452;-82
2021/09/15 12:27:34;;;;;;;9.13;6.43;;;22.80;99.90;;;;;;5077651;28;20480;-82
2021/09/15 12:30:04;;;;;;;7.47;5.37;;;22.80;99.90;;;;;;5073939;28;20424;-84
2021/09/15 12:32:33;;;;;;;9.20;6.27;;;22.90;99.90;;;;;;5070534;28;21048;-81
2021/09/15 12:35:00;;;;;;;9.33;6.50;;;23.00;99.90;;;;;;5060280;28;20504;-81
2021/09/15 12:37:28;;;;;;;10.50;6.80;;;23.00;99.90;;;;;;5060980;28;20480;-83
2021/09/15 12:39:58;;;;;;;9.73;5.90;;;23.10;99.90;;;;;;5058688;28;20983;-79
2021/09/15 12:42:27;;;;;;;7.80;5.87;;;23.00;99.90;;;;;;5059631;28;20447;-78
2021/09/15 12:45:01;;;;;;;9.00;6.10;;;23.00;99.90;;;;;;5058135;28;20539;-79
2021/09/15 12:47:36;;;;;;;9.47;6.10;;;23.00;99.90;;;;;;5056653;28;20494;-79
2021/09/15 12:50:12;;;;;;;9.47;7.23;;;23.00;99.90;;;;;;5056272;28;20505;-79
2021/09/15 12:52:40;;;;;;;8.67;5.77;;;22.90;99.90;;;;;;5057340;28;20447;-79
2021/09/15 12:55:07;;;;;;;8.43;5.93;;;23.00;99.90;;;;;;5062002;28;20922;-85
2021/09/15 12:57:35;;;;;;;9.50;6.67;;;23.10;99.90;;;;;;5059436;28;20524;-78